Etusivu
METAR-TAF:

METAR-TAF

Lentoasemat :

Powell River, Brittiläinen Kolumbia, Kanada

Leveyspiiri: 49-50N, Pituuspiiri: 124-30W, korkeus merenpinnasta: 130 m

Tämänhetkinen sää

Tämä raportti tehtiin 3 tuntia ja 1 minuuttia sitten, kello 03.00 UTC
Tuuli 2 kn idästä/kaakosta
Lämpötila 1°C
Kosteus 100%
Ilmanpaine 1016 hPa
Näkyvyys: 16.1 km
Muutamia pilviä 6500 ft:n korkeudessa
Hajonneita pilviä 24000 ft:n korkeudessa

METAR: CYPW 220300Z 12002KT 10SM FEW065 BKN240 01/01 A3001 RMK SC1CS4 PTCHY SHLW BR OVR E END RWY LAST STFD OBS NEXT OBS 221500 UTC SLP171

Aika: 22:01 (06:01 UTC)


TAF: puuttuu

Säähavainnot ja -ennusteet yli 4000 lentoasemalta (METAR- ja TAF-raportit).

Käytössä olevat sääasemat on merkitty karttaan keltaisilla ja punaisilla pisteillä.

Aseta hiiri pisteen päälle nähdäksesi sääaseman nimen.

Klikkaa sitten nähdäksesi säähavainnot ja -ennusteet.

Kartan vaihtaminen: klikkaa mustalla rastilla varustettuja vihreitä pisteitä, niin voit zoomata sisään; viivalla varustettua vihreää pistettä, niin voit zoomata ulos tai vihreitä nuolia, niin pääset viereisille kartoille.


METAR-TAF: